Time;durP1;ratioP1;P1;durP2;ratioP2;P2;SDS_P1;SDS_P2;PMS_P1;PMS_P2;Temp;Humidity;BMP_temperature;BMP_pressure;BME280_temperature;BME280_humidity;BME280_pressure;Samples;Min_cycle;Max_cycle;Signal;HPM_P1;HPM_P2
2022/07/31 00:00:07;;;;;;;4.00;2.28;;;;;;;18.25;85.85;100785.22;7400310;19;20010;-53
2022/07/31 00:02:38;;;;;;;5.90;2.60;;;;;;;18.19;85.82;100783.19;7396873;19;20013;-54
2022/07/31 00:05:16;;;;;;;1.92;1.25;;;;;;;18.10;86.44;100777.97;7397392;19;20014;-55
2022/07/31 00:07:43;;;;;;;2.03;1.05;;;;;;;18.08;85.79;100782.38;7399363;19;20035;-52
2022/07/31 00:10:11;;;;;;;1.60;1.15;;;;;;;18.03;85.72;100777.16;7392515;19;20041;-54
2022/07/31 00:12:39;;;;;;;3.58;1.13;;;;;;;17.98;86.03;100777.50;7396966;19;20018;-51
2022/07/31 00:15:11;;;;;;;3.83;1.50;;;;;;;17.93;85.68;100775.09;7396542;19;20018;-52
2022/07/31 00:17:40;;;;;;;3.28;1.27;;;;;;;17.91;85.88;100769.09;7396356;19;20010;-51
2022/07/31 00:20:12;;;;;;;3.30;1.40;;;;;;;17.86;85.39;100775.06;7391428;19;20452;-51
2022/07/31 00:22:41;;;;;;;2.05;1.38;;;;;;;17.82;85.62;100774.25;7389697;19;20484;-49
2022/07/31 00:28:59;;;;;;;2.42;1.52;;;;;;;17.71;85.77;100777.03;7394138;19;20354;-50
2022/07/31 00:31:26;;;;;;;2.03;1.20;;;;;;;17.74;85.63;100772.63;7395725;19;20033;-57
2022/07/31 00:33:54;;;;;;;6.03;1.60;;;;;;;17.73;85.44;100782.22;7395285;19;20493;-52
2022/07/31 00:36:21;;;;;;;3.88;1.13;;;;;;;17.72;85.45;100783.41;7395543;19;20034;-53
2022/07/31 00:38:58;;;;;;;4.30;1.40;;;;;;;17.70;85.23;100777.41;7395444;19;20015;-51
2022/07/31 00:41:39;;;;;;;7.20;2.70;;;;;;;17.62;85.79;100782.97;7394722;19;20027;-50
2022/07/31 00:47:28;;;;;;;8.13;2.50;;;;;;;17.55;85.72;100785.72;7394704;19;20088;-50
2022/07/31 00:49:57;;;;;;;4.43;2.70;;;;;;;17.56;85.38;100783.72;7394778;19;20093;-52
2022/07/31 00:52:24;;;;;;;7.57;3.88;;;;;;;17.55;85.28;100782.91;7393595;19;20337;-49
2022/07/31 00:54:52;;;;;;;15.10;5.30;;;;;;;17.55;85.55;100787.72;7393072;19;20014;-54
2022/07/31 00:57:20;;;;;;;6.38;4.38;;;;;;;17.51;85.49;100793.25;7394611;19;20018;-53
2022/07/31 00:59:47;;;;;;;9.68;5.35;;;;;;;17.49;85.75;100784.47;7395651;19;20018;-49
2022/07/31 01:02:15;;;;;;;8.80;5.07;;;;;;;17.46;85.90;100788.03;7392531;19;20041;-53
2022/07/31 01:04:42;;;;;;;11.63;5.40;;;;;;;17.43;85.54;100786.00;7391586;19;20037;-51
2022/07/31 01:07:11;;;;;;;11.75;5.45;;;;;;;17.44;85.89;100786.81;7393691;19;20015;-49
2022/07/31 01:09:38;;;;;;;12.88;4.72;;;;;;;17.41;85.61;100782.00;7393580;19;20226;-56
2022/07/31 01:12:13;;;;;;;12.40;5.88;;;;;;;17.36;86.00;100785.19;7394914;19;20574;-52
2022/07/31 01:14:55;;;;;;;8.93;4.75;;;;;;;17.34;86.18;100785.53;7396013;19;20078;-54
2022/07/31 01:17:26;;;;;;;13.88;6.13;;;;;;;17.34;86.02;100788.34;7398212;19;20356;-53
2022/07/31 01:20:16;;;;;;;13.27;4.45;;;;;;;17.32;85.91;100793.53;7392113;19;20022;-54
2022/07/31 01:23:09;;;;;;;5.95;4.18;;;;;;;17.31;86.16;100797.53;7394299;19;20030;-51
2022/07/31 01:26:00;;;;;;;5.18;3.20;;;;;;;17.24;86.66;100788.28;7395335;19;20013;-51
2022/07/31 01:28:59;;;;;;;8.32;3.78;;;;;;;17.21;86.22;100791.88;7397192;19;20017;-48
2022/07/31 01:32:07;;;;;;;7.10;3.63;;;;;;;17.19;86.21;100792.25;7394841;19;20015;-52
2022/07/31 01:34:44;;;;;;;7.05;3.65;;;;;;;17.20;85.78;100790.25;7392962;19;20022;-50
2022/07/31 01:37:27;;;;;;;12.88;3.75;;;;;;;17.18;85.78;100793.44;7395573;19;20029;-53
2022/07/31 01:40:13;;;;;;;5.47;3.58;;;;;;;17.16;85.75;100792.22;7394950;19;20018;-48
2022/07/31 01:42:47;;;;;;;6.80;3.08;;;;;;;17.14;85.51;100792.63;7387174;19;20015;-56
2022/07/31 01:45:17;;;;;;;7.50;3.50;;;;;;;17.11;85.38;100796.19;7391993;19;20501;-49
2022/07/31 01:47:47;;;;;;;8.85;3.25;;;;;;;17.10;85.70;100799.38;7386293;19;20124;-53
2022/07/31 01:50:16;;;;;;;6.22;3.53;;;;;;;17.05;85.38;100803.31;7389828;19;20006;-53
2022/07/31 01:53:08;;;;;;;7.68;3.20;;;;;;;17.03;85.33;100800.09;7385567;19;20010;-50
2022/07/31 01:55:51;;;;;;;7.95;3.20;;;;;;;16.98;85.41;100808.88;7386878;19;20464;-50
2022/07/31 01:58:37;;;;;;;8.57;2.85;;;;;;;16.97;85.18;100808.06;7388771;19;20411;-52
2022/07/31 02:01:20;;;;;;;6.20;2.95;;;;;;;16.95;85.38;100804.84;7386556;19;20018;-49
2022/07/31 02:03:55;;;;;;;11.18;2.47;;;;;;;16.92;85.42;100804.81;7394424;19;20014;-50
2022/07/31 02:07:01;;;;;;;9.32;3.55;;;;;;;16.92;85.99;100810.41;7394596;19;20018;-52
2022/07/31 02:16:36;;;;;;;8.65;4.15;;;;;;;16.89;86.03;100802.81;7385323;19;20018;-53
2022/07/31 02:19:35;;;;;;;11.15;4.28;;;;;;;16.91;85.38;100806.81;7390992;19;20483;-59
2022/07/31 02:22:03;;;;;;;10.52;4.40;;;;;;;16.89;85.37;100811.19;7394091;19;20479;-54
2022/07/31 02:24:35;;;;;;;6.68;3.47;;;;;;;16.88;85.93;100809.59;7392754;19;20077;-54
2022/07/31 02:27:05;;;;;;;8.60;3.50;;;;;;;16.84;85.75;100815.13;7392171;19;20011;-55
2022/07/31 02:30:19;;;;;;;6.25;3.97;;;;;;;16.80;86.11;100819.09;7390557;19;20041;-53
2022/07/31 02:33:13;;;;;;;6.72;3.45;;;;;;;16.77;85.87;100809.47;7387894;19;20010;-53
2022/07/31 02:35:44;;;;;;;9.05;4.40;;;;;;;16.77;86.10;100814.28;7392948;19;20022;-50
2022/07/31 02:38:18;;;;;;;6.75;3.38;;;;;;;16.72;86.46;100818.22;7390151;19;20517;-53
2022/07/31 02:41:00;;;;;;;9.02;3.25;;;;;;;16.71;86.14;100816.59;7392124;19;20051;-54
2022/07/31 02:44:02;;;;;;;12.73;3.55;;;;;;;16.70;86.42;100814.22;7392104;19;20017;-50
2022/07/31 02:46:31;;;;;;;7.47;2.83;;;;;;;16.69;86.34;100815.38;7392431;19;20073;-52
2022/07/31 02:50:04;;;;;;;3.55;2.42;;;;;;;16.70;86.29;100819.81;7390947;19;20015;-50
2022/07/31 02:52:33;;;;;;;6.20;2.25;;;;;;;16.70;85.98;100814.22;7390069;19;20010;-54
2022/07/31 02:55:17;;;;;;;4.47;2.22;;;;;;;16.66;86.54;100818.94;7389460;19;20418;-51
2022/07/31 02:57:46;;;;;;;3.55;1.55;;;;;;;16.62;86.23;100823.72;7396666;19;20082;-53
2022/07/31 03:03:52;;;;;;;5.45;1.67;;;;;;;16.51;86.62;100822.75;7401488;19;20014;-59
2022/07/31 03:06:20;;;;;;;6.10;2.53;;;;;;;16.52;86.27;100818.78;7400613;19;20567;-54
2022/07/31 03:08:49;;;;;;;3.15;1.70;;;;;;;16.52;86.41;100825.16;7397340;19;20014;-53
2022/07/31 03:11:20;;;;;;;5.25;2.28;;;;;;;16.51;86.50;100839.53;7397479;19;20022;-53
2022/07/31 03:13:48;;;;;;;2.55;1.67;;;;;;;16.50;86.26;100832.31;7398294;19;20350;-52
2022/07/31 03:23:34;;;;;;;3.92;1.50;;;;;;;16.45;86.43;100842.69;7395202;19;20018;-52
2022/07/31 03:26:07;;;;;;;2.42;1.77;;;;;;;16.47;86.02;100850.66;7399708;19;20039;-54
2022/07/31 03:28:35;;;;;;;3.95;1.50;;;;;;;16.47;85.81;100856.25;7399960;19;20023;-50
2022/07/31 03:31:03;;;;;;;2.63;1.30;;;;;;;16.45;86.04;100851.06;7397343;19;20520;-55
2022/07/31 03:33:30;;;;;;;1.52;1.40;;;;;;;16.43;86.54;100859.03;7398961;19;20021;-51
2022/07/31 03:35:58;;;;;;;2.50;1.48;;;;;;;16.43;86.38;100850.66;7396956;19;20011;-53
2022/07/31 03:38:27;;;;;;;4.03;1.75;;;;;;;16.47;86.85;100852.69;7395920;19;20014;-51
2022/07/31 03:41:11;;;;;;;3.67;1.55;;;;;;;16.35;86.36;100848.16;7396714;19;20030;-54
2022/07/31 03:43:40;;;;;;;4.60;1.55;;;;;;;16.30;86.67;100852.09;7399297;19;20344;-55
2022/07/31 03:46:59;;;;;;;6.15;1.92;;;;;;;16.27;86.65;100858.44;7398018;19;20089;-54
2022/07/31 03:49:48;;;;;;;6.30;1.80;;;;;;;16.28;86.57;100850.88;7399198;19;20044;-50
2022/07/31 03:52:39;;;;;;;5.80;2.17;;;;;;;16.22;86.55;100847.59;7401402;19;20007;-53
2022/07/31 03:55:08;;;;;;;8.45;3.25;;;;;;;16.23;86.36;100851.97;7400061;19;20051;-51
2022/07/31 04:01:14;;;;;;;5.80;2.03;;;;;;;16.21;86.24;100868.34;7397830;19;20367;-54
2022/07/31 04:04:04;;;;;;;6.00;1.45;;;;;;;16.20;86.57;100872.28;7398813;19;20487;-52
2022/07/31 04:06:41;;;;;;;4.93;1.85;;;;;;;16.23;86.67;100873.56;7398438;19;20122;-54
2022/07/31 04:23:05;;;;;;;3.95;1.02;;;;;;;15.94;85.59;100889.09;7399170;19;19918;-53
2022/07/31 04:26:05;;;;;;;6.55;2.97;;;;;;;15.85;85.43;100885.81;7395794;19;20483;-51
2022/07/31 04:28:36;;;;;;;5.85;1.23;;;;;;;15.83;85.83;100891.75;7393427;19;20015;-53
2022/07/31 04:31:04;;;;;;;3.88;0.95;;;;;;;15.83;85.40;100893.75;7398564;19;20006;-51
2022/07/31 04:33:35;;;;;;;3.40;1.23;;;;;;;15.79;85.54;100892.88;7398599;19;20014;-51
2022/07/31 04:36:30;;;;;;;4.18;0.90;;;;;;;15.77;85.73;100906.44;7397986;19;20015;-52
2022/07/31 04:39:00;;;;;;;1.52;1.02;;;;;;;15.77;85.55;100909.22;7395111;19;20018;-53
2022/07/31 04:41:29;;;;;;;5.72;2.25;;;;;;;15.74;85.45;100905.19;7398475;19;20026;-50
2022/07/31 04:48:07;;;;;;;1.40;0.80;;;;;;;15.67;85.96;100919.03;7397651;19;20023;-52
2022/07/31 04:50:35;;;;;;;1.08;0.82;;;;;;;15.72;85.44;100926.28;7396712;19;20006;-53
2022/07/31 04:53:41;;;;;;;1.77;0.82;;;;;;;15.71;85.58;100925.47;7395507;19;20015;-53
2022/07/31 04:58:54;;;;;;;2.90;1.17;;;;;;;15.74;85.44;100929.50;7393993;19;20017;-53
2022/07/31 05:01:22;;;;;;;6.65;1.58;;;;;;;15.72;86.00;100940.25;7394623;19;20030;-52
2022/07/31 05:03:50;;;;;;;3.10;0.68;;;;;;;15.69;86.11;100936.22;7394840;19;20022;-54
2022/07/31 05:06:18;;;;;;;2.13;1.13;;;;;;;15.67;86.53;100940.56;7395591;19;20085;-50
2022/07/31 05:12:25;;;;;;;2.53;0.70;;;;;;;15.62;86.03;100950.03;7391263;19;20471;-53
2022/07/31 05:14:54;;;;;;;4.32;0.93;;;;;;;15.64;85.57;100946.91;7389009;19;20074;-49
2022/07/31 05:17:21;;;;;;;4.90;0.93;;;;;;;15.59;85.36;100945.25;7396276;19;20015;-50
2022/07/31 05:20:29;;;;;;;1.23;0.80;;;;;;;15.56;85.84;100945.97;7395799;19;20081;-54
2022/07/31 05:26:51;;;;;;;2.40;0.80;;;;;;;15.55;85.38;100949.13;7398994;19;20344;-57
2022/07/31 05:36:16;;;;;;;1.25;0.70;;;;;;;15.64;84.95;100958.06;7394014;19;20018;-54
2022/07/31 05:38:44;;;;;;;1.92;0.60;;;;;;;15.68;85.07;100953.31;7389864;19;20015;-56
2022/07/31 05:41:32;;;;;;;2.10;0.75;;;;;;;15.67;84.99;100962.91;7396001;19;20025;-55
2022/07/31 05:47:36;;;;;;;3.15;0.88;;;;;;;15.72;85.21;100971.75;7396657;19;20010;-54
2022/07/31 05:50:29;;;;;;;3.40;1.00;;;;;;;15.72;85.55;100976.53;7390656;19;20021;-53
2022/07/31 05:52:57;;;;;;;3.90;1.17;;;;;;;15.73;85.51;100987.31;7395944;19;20081;-54
2022/07/31 05:56:11;;;;;;;2.50;1.00;;;;;;;15.70;85.59;100990.84;7393870;19;20006;-54
2022/07/31 05:58:47;;;;;;;6.93;1.05;;;;;;;15.66;85.67;100995.59;7390370;19;20504;-52
2022/07/31 06:01:16;;;;;;;5.35;1.30;;;;;;;15.69;85.42;100989.25;7393846;19;20021;-54
2022/07/31 06:03:44;;;;;;;2.83;0.82;;;;;;;15.70;85.32;100996.44;7390684;19;20018;-51
2022/07/31 06:06:37;;;;;;;1.77;0.80;;;;;;;15.74;85.59;101004.88;7392159;19;20098;-52
2022/07/31 06:09:05;;;;;;;1.02;0.70;;;;;;;15.80;85.84;101008.97;7395187;19;20486;-50
2022/07/31 06:11:39;;;;;;;3.72;0.90;;;;;;;15.81;85.89;101007.78;7393471;19;20055;-54
2022/07/31 06:14:07;;;;;;;0.80;0.50;;;;;;;15.84;85.66;101012.63;7397507;19;20018;-51
2022/07/31 06:17:12;;;;;;;4.97;0.90;;;;;;;15.89;86.17;101019.88;7389902;19;20006;-52
2022/07/31 06:19:40;;;;;;;1.63;0.90;;;;;;;15.91;85.74;101023.91;7389946;19;20038;-54
2022/07/31 06:22:08;;;;;;;1.95;0.52;;;;;;;15.92;85.79;101019.94;7391118;19;20025;-53
2022/07/31 06:28:34;;;;;;;3.78;1.00;;;;;;;15.89;85.59;101031.03;7396367;19;20019;-56
2022/07/31 06:31:36;;;;;;;0.98;0.63;;;;;;;15.92;85.49;101042.28;7388249;19;20014;-57
2022/07/31 06:37:48;;;;;;;0.50;0.38;;;;;;;16.01;85.09;101039.22;7388417;19;20342;-56
2022/07/31 06:40:16;;;;;;;3.08;0.80;;;;;;;16.09;85.19;101052.13;7392500;19;20014;-50
2022/07/31 06:43:02;;;;;;;0.40;0.40;;;;;;;16.14;84.80;101049.81;7393659;19;20018;-51
2022/07/31 06:45:55;;;;;;;1.77;0.50;;;;;;;16.14;85.00;101051.81;7393893;19;20019;-50
2022/07/31 06:49:38;;;;;;;2.08;1.15;;;;;;;16.14;85.06;101054.59;7389837;19;20033;-54
2022/07/31 06:52:26;;;;;;;0.30;0.30;;;;;;;16.14;85.25;101049.81;7397459;19;20320;-52
2022/07/31 06:58:40;;;;;;;1.40;0.43;;;;;;;16.22;84.64;101053.53;7394885;19;20018;-53
2022/07/31 07:02:11;;;;;;;0.73;0.55;;;;;;;16.22;84.89;101045.13;7395358;19;20010;-54
2022/07/31 07:11:46;;;;;;;0.70;0.60;;;;;;;16.36;84.67;101056.53;7389666;19;20010;-54
2022/07/31 07:15:02;;;;;;;1.73;0.82;;;;;;;16.36;84.83;101062.91;7390283;19;20014;-51
2022/07/31 07:17:30;;;;;;;2.45;0.95;;;;;;;16.45;85.11;101066.25;7388525;19;20014;-53
2022/07/31 07:19:57;;;;;;;1.23;1.13;;;;;;;16.49;84.87;101071.09;7389304;19;20019;-52
2022/07/31 07:22:25;;;;;;;0.80;0.80;;;;;;;16.55;85.22;101076.00;7388507;19;20475;-50
2022/07/31 07:25:00;;;;;;;2.35;0.77;;;;;;;16.61;84.80;101074.50;7390044;19;20022;-55
2022/07/31 07:27:48;;;;;;;0.82;0.82;;;;;;;16.65;84.42;101077.34;7390918;19;20365;-51
2022/07/31 07:30:16;;;;;;;2.47;0.65;;;;;;;16.66;84.68;101076.16;7389966;19;20007;-55
2022/07/31 07:32:44;;;;;;;0.57;0.50;;;;;;;16.66;84.39;101070.56;7389805;19;20034;-54
2022/07/31 07:35:11;;;;;;;1.65;0.80;;;;;;;16.65;84.57;101069.78;7391700;19;20010;-52
2022/07/31 07:38:02;;;;;;;2.08;1.33;;;;;;;16.77;84.86;101075.13;7393926;19;20346;-50
2022/07/31 07:40:30;;;;;;;1.58;0.57;;;;;;;16.80;84.77;101076.34;7393613;19;20040;-48
2022/07/31 07:46:24;;;;;;;0.57;0.57;;;;;;;16.92;84.53;101079.69;7383807;19;20010;-52
2022/07/31 07:49:10;;;;;;;4.50;4.10;;;;;;;16.99;84.35;101084.59;7397547;19;20418;-51
2022/07/31 07:51:50;;;;;;;3.33;2.85;;;;;;;17.08;84.17;101082.28;7397258;19;20011;-48
2022/07/31 07:54:39;;;;;;;0.95;0.95;;;;;;;17.12;84.22;101080.38;7399280;19;20039;-50
2022/07/31 07:57:26;;;;;;;0.63;0.60;;;;;;;17.23;84.06;101081.31;7403387;19;20007;-48
2022/07/31 08:08:28;;;;;;;1.80;0.75;;;;;;;17.44;82.75;101095.53;7397009;19;20014;-52
2022/07/31 08:11:16;;;;;;;3.20;0.90;;;;;;;17.45;82.61;101102.72;7395755;19;20011;-50
2022/07/31 08:18:06;;;;;;;1.50;0.65;;;;;;;17.34;82.74;101107.38;7394446;19;20095;-54
2022/07/31 08:20:37;;;;;;;2.08;0.77;;;;;;;17.37;82.75;101106.63;7398031;19;20011;-53
2022/07/31 08:23:25;;;;;;;1.25;0.57;;;;;;;17.40;82.91;101113.47;7393151;19;20018;-49
2022/07/31 08:25:55;;;;;;;0.98;0.85;;;;;;;17.45;82.63;101116.72;7401882;19;20034;-53
2022/07/31 08:28:25;;;;;;;1.38;1.27;;;;;;;17.48;82.25;101112.34;7398350;19;20349;-51
2022/07/31 08:31:16;;;;;;;1.20;1.08;;;;;;;17.46;82.23;101121.16;7395377;19;20039;-52
2022/07/31 08:33:58;;;;;;;1.88;1.60;;;;;;;17.46;82.28;101135.16;7396652;19;20018;-52
2022/07/31 08:46:37;;;;;;;1.40;1.30;;;;;;;17.33;81.73;101131.00;7394246;19;20014;-50
2022/07/31 08:49:26;;;;;;;1.98;0.80;;;;;;;17.34;82.08;101134.59;7392375;19;20014;-53
2022/07/31 08:51:54;;;;;;;3.03;0.80;;;;;;;17.39;81.84;101135.06;7395085;19;20355;-53
2022/07/31 08:54:54;;;;;;;1.05;0.95;;;;;;;17.36;81.85;101133.03;7396978;19;20014;-53
2022/07/31 08:57:57;;;;;;;1.10;0.88;;;;;;;17.40;82.52;101138.66;7396200;19;20006;-54
2022/07/31 09:00:52;;;;;;;1.52;1.00;;;;;;;17.53;82.16;101132.44;7383782;19;20019;-54
2022/07/31 09:03:20;;;;;;;2.28;1.45;;;;;;;17.59;82.10;101144.09;7395420;19;20025;-54
2022/07/31 09:05:55;;;;;;;1.40;1.00;;;;;;;17.64;81.64;101141.78;7393479;19;20045;-53
2022/07/31 09:08:24;;;;;;;1.55;1.10;;;;;;;17.68;81.32;101143.81;7392150;19;20019;-53
2022/07/31 09:11:08;;;;;;;1.63;1.52;;;;;;;17.73;81.89;101140.66;7391489;19;20025;-55
2022/07/31 09:14:01;;;;;;;2.40;1.58;;;;;;;17.81;81.69;101147.94;7394355;19;20078;-52
2022/07/31 09:16:53;;;;;;;3.20;1.35;;;;;;;17.72;81.50;101150.25;7394537;19;20468;-55
2022/07/31 09:19:50;;;;;;;1.08;0.65;;;;;;;17.66;80.94;101158.19;7392002;19;20443;-53
2022/07/31 09:22:41;;;;;;;1.15;0.65;;;;;;;17.63;80.87;101158.97;7394513;19;20018;-50
2022/07/31 09:25:14;;;;;;;1.27;1.17;;;;;;;17.59;81.05;101166.50;7396349;19;20030;-54
2022/07/31 09:27:42;;;;;;;1.83;0.80;;;;;;;17.54;80.97;101167.66;7391850;19;20047;-50
2022/07/31 09:30:10;;;;;;;2.17;0.80;;;;;;;17.54;81.45;101172.44;7391836;19;20047;-50
2022/07/31 09:33:12;;;;;;;2.50;0.75;;;;;;;17.55;81.59;101166.47;7385014;19;20023;-52
2022/07/31 09:36:00;;;;;;;0.82;0.80;;;;;;;17.63;81.52;101176.56;7390132;19;20007;-53
2022/07/31 09:38:31;;;;;;;1.48;0.60;;;;;;;17.77;81.42;101173.09;7391989;19;20014;-56
2022/07/31 09:41:37;;;;;;;2.60;1.20;;;;;;;17.96;81.20;101172.09;7391723;19;20014;-53
2022/07/31 09:48:35;;;;;;;2.13;0.98;;;;;;;18.35;80.00;101166.88;7389695;19;20018;-49
2022/07/31 09:51:24;;;;;;;1.58;1.00;;;;;;;18.52;79.73;101174.66;7392566;19;20022;-48
2022/07/31 09:54:19;;;;;;;0.80;0.80;;;;;;;18.67;79.39;101177.16;7392260;19;20022;-50
2022/07/31 10:01:03;;;;;;;1.85;0.95;;;;;;;18.96;79.00;101168.94;7392491;19;20010;-52
2022/07/31 10:03:35;;;;;;;3.05;0.70;;;;;;;19.06;78.84;101185.06;7393324;19;20048;-49
2022/07/31 10:06:05;;;;;;;2.45;0.63;;;;;;;19.17;78.33;101174.66;7390232;19;20048;-51
2022/07/31 10:08:35;;;;;;;0.45;0.45;;;;;;;19.31;77.43;101178.38;7391462;19;20033;-48
2022/07/31 10:11:24;;;;;;;1.23;0.60;;;;;;;19.44;76.64;101176.03;7390628;19;20025;-51
2022/07/31 10:14:27;;;;;;;0.60;0.60;;;;;;;19.54;76.06;101175.28;7389472;19;20006;-53
2022/07/31 10:17:03;;;;;;;2.58;0.60;;;;;;;19.59;75.54;101179.72;7395288;19;20018;-53
2022/07/31 10:19:52;;;;;;;3.13;0.70;;;;;;;19.64;73.45;101182.13;7383330;19;20070;-48
2022/07/31 10:22:46;;;;;;;0.55;0.55;;;;;;;19.67;74.16;101179.31;7392817;19;20018;-51
2022/07/31 10:25:26;;;;;;;5.60;4.90;;;;;;;19.69;73.17;101185.38;7392172;19;20039;-48
2022/07/31 10:28:11;;;;;;;3.72;2.80;;;;;;;19.69;73.05;101195.81;7392822;19;20037;-50
2022/07/31 10:30:48;;;;;;;0.70;0.70;;;;;;;19.69;72.13;101185.38;7393992;19;20014;-48
2022/07/31 10:33:18;;;;;;;1.13;1.05;;;;;;;19.66;72.59;101186.16;7393365;19;20025;-49
2022/07/31 10:37:21;;;;;;;2.20;1.20;;;;;;;19.54;70.04;101192.13;7393609;19;20492;-51
2022/07/31 10:44:12;;;;;;;1.77;1.55;;;;;;;19.19;71.83;101194.75;7393893;19;20094;-54
2022/07/31 10:47:37;;;;;;;1.85;1.70;;;;;;;19.14;72.34;101197.94;7388895;19;20074;-42
2022/07/31 10:50:20;;;;;;;2.50;1.85;;;;;;;19.15;73.17;101202.34;7390121;19;20029;-52
2022/07/31 10:53:14;;;;;;;2.35;1.55;;;;;;;19.12;73.10;101203.09;7391446;19;20549;-49
2022/07/31 10:56:12;;;;;;;5.35;1.25;;;;;;;19.12;73.17;101212.34;7388809;19;20007;-52
2022/07/31 10:59:03;;;;;;;2.38;1.00;;;;;;;19.13;73.48;101208.34;7391143;19;20019;-39
2022/07/31 11:02:31;;;;;;;2.03;1.42;;;;;;;19.16;72.98;101209.56;7388609;19;20102;-40
2022/07/31 11:05:55;;;;;;;4.13;1.25;;;;;;;19.27;72.77;101208.41;7390630;19;20022;-39
2022/07/31 11:09:07;;;;;;;2.90;1.30;;;;;;;19.40;73.11;101211.75;7388515;19;20017;-39
2022/07/31 11:11:53;;;;;;;2.17;1.25;;;;;;;19.55;72.73;101215.41;7392631;19;20206;-50
2022/07/31 11:15:03;;;;;;;2.38;0.90;;;;;;;19.72;72.32;101209.06;7388606;19;20013;-51
2022/07/31 11:17:39;;;;;;;1.17;1.08;;;;;;;19.84;71.56;101209.50;7393076;19;20010;-50
2022/07/31 11:20:45;;;;;;;1.50;1.13;;;;;;;20.01;71.84;101207.94;7393102;19;20015;-50
2022/07/31 11:23:16;;;;;;;5.53;1.73;;;;;;;20.26;71.03;101203.19;7399966;19;20011;-53
2022/07/31 11:25:45;;;;;;;1.13;0.70;;;;;;;20.55;70.68;101198.38;7396802;19;20018;-49
2022/07/31 11:28:22;;;;;;;1.98;0.95;;;;;;;20.73;70.86;101204.78;7399578;19;20010;-50
2022/07/31 11:30:51;;;;;;;2.17;1.23;;;;;;;20.85;69.56;101204.41;7397810;19;20011;-54
2022/07/31 11:33:28;;;;;;;3.05;1.83;;;;;;;21.01;68.54;101203.97;7401485;19;20373;-48
2022/07/31 11:36:10;;;;;;;1.20;0.80;;;;;;;21.01;67.98;101204.78;7397646;19;20055;-56
2022/07/31 11:38:41;;;;;;;1.13;1.13;;;;;;;21.12;67.72;101204.78;7400325;19;20362;-53
2022/07/31 11:41:22;;;;;;;3.97;1.27;;;;;;;21.27;67.55;101205.53;7398650;19;20714;-49
2022/07/31 11:43:51;;;;;;;2.17;1.05;;;;;;;21.39;67.82;101202.28;7398369;19;20017;-50
2022/07/31 11:46:23;;;;;;;0.90;0.90;;;;;;;21.46;66.86;101208.69;7391924;19;20047;-49
2022/07/31 11:48:52;;;;;;;1.08;1.00;;;;;;;21.43;67.08;101203.06;7396992;19;20046;-50
2022/07/31 11:51:20;;;;;;;1.27;0.95;;;;;;;21.43;65.85;101205.88;7396440;19;20026;-50
2022/07/31 11:53:50;;;;;;;0.95;0.70;;;;;;;21.41;65.70;101209.13;7395109;19;20011;-50
2022/07/31 11:56:25;;;;;;;2.35;1.00;;;;;;;21.47;64.78;101201.84;7397983;19;20010;-50
2022/07/31 11:58:57;;;;;;;1.40;0.80;;;;;;;21.57;64.53;101208.66;7393912;19;20011;-51
2022/07/31 12:04:45;;;;;;;0.85;0.82;;;;;;;21.61;64.54;101210.25;7396667;19;19915;-47
2022/07/31 12:07:13;;;;;;;3.97;0.75;;;;;;;21.78;64.29;101214.19;7395996;19;20018;-47
2022/07/31 12:09:41;;;;;;;1.75;0.88;;;;;;;21.90;63.33;101207.31;7397322;19;20019;-46
2022/07/31 12:12:50;;;;;;;1.10;0.88;;;;;;;22.01;62.37;101208.06;7398677;19;20071;-48
2022/07/31 12:15:58;;;;;;;0.98;0.90;;;;;;;22.13;62.23;101205.56;7392356;19;20015;-49
2022/07/31 12:21:45;;;;;;;4.97;1.35;;;;;;;21.88;62.54;101216.19;7395596;19;20379;-52
2022/07/31 12:24:13;;;;;;;1.20;1.02;;;;;;;21.83;62.67;101210.94;7398650;19;20011;-48
2022/07/31 12:26:58;;;;;;;1.13;1.10;;;;;;;21.86;62.87;101207.34;7394013;19;20070;-49
2022/07/31 12:29:36;;;;;;;2.63;0.80;;;;;;;21.89;63.01;101206.53;7399291;19;20014;-48
2022/07/31 12:32:05;;;;;;;0.75;0.70;;;;;;;21.93;63.18;101210.13;7398156;19;20014;-47
2022/07/31 12:34:38;;;;;;;1.42;1.13;;;;;;;22.22;63.15;101211.53;7398895;19;20006;-51
2022/07/31 12:37:08;;;;;;;0.55;0.55;;;;;;;22.57;62.93;101216.13;7396346;19;20026;-48
2022/07/31 12:39:49;;;;;;;1.30;1.20;;;;;;;22.68;62.73;101221.72;7393843;19;20010;-49
2022/07/31 12:42:48;;;;;;;5.97;1.23;;;;;;;22.41;63.32;101221.47;7397921;19;20007;-52
2022/07/31 12:45:16;;;;;;;3.45;1.42;;;;;;;22.21;63.26;101232.50;7396999;19;20014;-49
2022/07/31 12:47:47;;;;;;;7.30;1.67;;;;;;;21.82;63.63;101227.06;7394140;19;20040;-49
2022/07/31 12:50:23;;;;;;;5.82;1.40;;;;;;;21.40;63.93;101220.78;7395839;19;20014;-48
2022/07/31 12:52:51;;;;;;;4.95;1.48;;;;;;;21.09;64.65;101231.75;7396143;19;20401;-49
2022/07/31 12:55:19;;;;;;;2.55;1.50;;;;;;;20.85;64.83;101229.72;7396927;19;20038;-49
2022/07/31 12:57:47;;;;;;;4.30;1.88;;;;;;;20.70;65.26;101230.94;7398405;19;20009;-46
2022/07/31 13:00:23;;;;;;;2.92;1.88;;;;;;;20.60;65.05;101228.91;7395440;19;20011;-47
2022/07/31 13:02:54;;;;;;;4.88;2.45;;;;;;;20.74;64.80;101222.47;7397256;19;20346;-46
2022/07/31 13:05:23;;;;;;;2.10;1.15;;;;;;;21.11;64.95;101225.69;7394483;19;20019;-47
2022/07/31 13:07:51;;;;;;;3.05;1.13;;;;;;;21.41;64.25;101228.03;7397302;19;20348;-51
2022/07/31 13:10:19;;;;;;;1.50;1.27;;;;;;;21.46;63.73;101230.44;7398239;19;20022;-47
2022/07/31 13:13:18;;;;;;;4.18;1.33;;;;;;;21.39;63.47;101219.19;7394260;19;20010;-46
2022/07/31 13:15:45;;;;;;;3.95;1.08;;;;;;;21.28;63.89;101222.03;7395557;19;20017;-47
2022/07/31 13:18:13;;;;;;;1.02;0.93;;;;;;;21.15;64.23;101227.28;7395823;19;20518;-47
2022/07/31 13:20:40;;;;;;;1.42;1.00;;;;;;;21.08;63.60;101235.75;7395075;19;20097;-51
2022/07/31 13:23:08;;;;;;;2.50;1.05;;;;;;;21.04;63.11;101229.31;7396626;19;20013;-47
2022/07/31 13:25:36;;;;;;;4.07;1.65;;;;;;;21.04;63.40;101220.84;7391465;19;20851;-46
2022/07/31 13:28:03;;;;;;;2.13;1.25;;;;;;;21.12;64.03;101239.38;7394930;19;20542;-47
2022/07/31 13:30:31;;;;;;;1.40;1.30;;;;;;;21.30;63.32;101238.53;7395923;19;20340;-46
2022/07/31 13:32:58;;;;;;;0.90;0.75;;;;;;;21.26;63.28;101232.88;7393080;19;20513;-47
2022/07/31 13:35:26;;;;;;;2.03;1.00;;;;;;;21.13;63.02;101235.34;7395298;19;20475;-48
2022/07/31 13:37:56;;;;;;;3.70;0.90;;;;;;;21.04;62.57;101237.75;7393133;19;20014;-47
2022/07/31 13:43:11;;;;;;;0.40;0.40;;;;;;;20.95;61.80;101240.16;7393288;19;20011;-48
2022/07/31 13:45:39;;;;;;;1.20;0.70;;;;;;;20.97;61.79;101249.00;7395319;19;20014;-46
2022/07/31 13:48:06;;;;;;;2.10;0.90;;;;;;;21.16;61.45;101233.72;7392897;19;20047;-52
2022/07/31 13:50:38;;;;;;;1.08;0.98;;;;;;;21.29;61.40;101234.13;7394370;19;20018;-55
2022/07/31 13:53:06;;;;;;;1.85;0.63;;;;;;;21.21;61.85;101227.69;7391214;19;20505;-50
2022/07/31 13:55:35;;;;;;;3.33;1.20;;;;;;;21.08;61.85;101235.75;7393994;19;20329;-50
2022/07/31 13:58:03;;;;;;;2.55;1.08;;;;;;;20.98;61.79;101236.53;7393999;19;20006;-47
2022/07/31 14:00:30;;;;;;;2.53;0.90;;;;;;;20.74;61.54;101239.38;7395414;19;20019;-47
2022/07/31 14:02:58;;;;;;;0.80;0.70;;;;;;;20.40;61.33;101241.78;7396059;19;20007;-46
2022/07/31 14:05:26;;;;;;;0.60;0.50;;;;;;;20.15;61.14;101246.53;7392656;19;20007;-47
2022/07/31 14:07:54;;;;;;;2.00;1.10;;;;;;;20.07;61.93;101247.72;7396639;19;20004;-48
2022/07/31 14:10:43;;;;;;;3.72;1.35;;;;;;;20.09;61.67;101246.13;7392784;19;20014;-49
2022/07/31 14:13:17;;;;;;;1.52;0.90;;;;;;;20.13;61.42;101252.53;7393699;19;20336;-48
2022/07/31 14:15:46;;;;;;;1.20;1.10;;;;;;;20.22;61.56;101243.72;7395064;19;20014;-49
2022/07/31 14:18:13;;;;;;;2.72;1.88;;;;;;;20.25;61.98;101248.59;7395215;19;20014;-49
2022/07/31 14:20:45;;;;;;;3.65;1.15;;;;;;;20.46;61.43;101257.06;7395560;19;20014;-49
2022/07/31 14:23:12;;;;;;;1.48;1.10;;;;;;;21.12;60.46;101259.09;7396215;19;20119;-51
2022/07/31 14:25:41;;;;;;;3.55;0.90;;;;;;;21.42;59.84;101255.00;7390282;19;20014;-49
2022/07/31 14:28:09;;;;;;;0.85;0.80;;;;;;;21.90;59.83;101267.31;7394447;19;20014;-48
2022/07/31 14:30:40;;;;;;;0.68;0.45;;;;;;;22.27;59.18;101256.25;7395483;19;20043;-51